createdAt,value
2022-11-05T00:00:43.992Z,52.78
2022-11-05T00:03:16.959Z,52.83
2022-11-05T00:05:49.925Z,52.77
2022-11-05T00:08:23.045Z,52.78
2022-11-05T00:10:55.923Z,52.73
2022-11-05T00:13:29.046Z,52.69
2022-11-05T00:16:01.918Z,52.69
2022-11-05T00:18:35.011Z,52.69
2022-11-05T00:21:07.980Z,52.71
2022-11-05T00:23:41.036Z,52.69
2022-11-05T00:26:13.942Z,52.68
2022-11-05T00:28:46.957Z,52.59
2022-11-05T00:31:20.069Z,52.57
2022-11-05T00:33:53.970Z,52.61
2022-11-05T00:36:27.021Z,52.60
2022-11-05T00:39:05.995Z,52.58
2022-11-05T00:41:39.069Z,52.60
2022-11-05T00:44:11.982Z,52.60
2022-11-05T00:46:45.064Z,52.63
2022-11-05T00:49:17.988Z,52.67
2022-11-05T00:51:51.048Z,52.62
2022-11-05T00:54:24.005Z,52.65
2022-11-05T00:57:01.953Z,52.62
2022-11-05T00:59:30.092Z,52.65
2022-11-05T01:02:03.214Z,52.60
2022-11-05T01:04:35.934Z,52.62
2022-11-05T01:07:09.030Z,52.62
2022-11-05T01:09:42.109Z,52.54
2022-11-05T01:12:15.007Z,52.56
2022-11-05T01:14:48.180Z,52.54
2022-11-05T01:17:21.126Z,52.54
2022-11-05T01:19:54.112Z,52.52
2022-11-05T01:22:27.123Z,52.55
2022-11-05T01:25:00.092Z,52.58
2022-11-05T01:27:33.135Z,52.56
2022-11-05T01:30:06.119Z,52.58
2022-11-05T01:32:39.143Z,52.58
2022-11-05T01:35:12.138Z,52.61
2022-11-05T01:37:45.054Z,52.59
2022-11-05T01:40:18.026Z,52.62
2022-11-05T01:42:51.083Z,52.62
2022-11-05T01:45:24.181Z,52.64
2022-11-05T01:47:57.110Z,52.64
2022-11-05T01:50:30.175Z,52.64
2022-11-05T01:53:03.085Z,52.60
2022-11-05T01:55:36.163Z,52.60
2022-11-05T01:58:09.111Z,52.60
2022-11-05T02:00:42.051Z,52.60
2022-11-05T02:03:15.102Z,52.57
2022-11-05T02:05:48.173Z,52.60
2022-11-05T02:08:21.065Z,52.60
2022-11-05T02:10:54.163Z,52.61
2022-11-05T02:13:27.054Z,52.60
2022-11-05T02:16:06.226Z,52.58
2022-11-05T02:18:39.037Z,52.59
2022-11-05T02:21:12.111Z,52.56
2022-11-05T02:23:45.115Z,52.55
2022-11-05T02:26:18.117Z,52.54
2022-11-05T02:28:51.111Z,52.53
2022-11-05T02:31:24.245Z,52.56
2022-11-05T02:33:57.229Z,52.51
2022-11-05T02:36:30.225Z,52.53
2022-11-05T02:39:03.201Z,52.51
2022-11-05T02:41:36.208Z,52.51
2022-11-05T02:44:09.154Z,52.59
2022-11-05T02:46:42.273Z,52.53
2022-11-05T02:49:15.184Z,52.50
2022-11-05T02:51:48.250Z,52.56
2022-11-05T02:54:27.072Z,52.58
2022-11-05T02:57:00.304Z,52.58
2022-11-05T02:59:33.159Z,52.66
2022-11-05T03:02:06.037Z,52.62
2022-11-05T03:04:39.147Z,52.60
2022-11-05T03:07:12.291Z,52.59
2022-11-05T03:09:45.238Z,52.60
2022-11-05T03:12:18.275Z,52.62
2022-11-05T03:14:51.264Z,52.60
2022-11-05T03:17:24.225Z,52.60
2022-11-05T03:19:57.180Z,52.62
2022-11-05T03:22:30.324Z,52.63
2022-11-05T03:25:03.223Z,52.61
2022-11-05T03:27:36.164Z,52.60
2022-11-05T03:30:09.155Z,52.58
2022-11-05T03:32:42.192Z,52.59
2022-11-05T03:35:15.263Z,52.59
2022-11-05T03:37:48.188Z,52.54
2022-11-05T03:40:21.249Z,52.54
2022-11-05T03:42:54.187Z,52.55
2022-11-05T03:45:27.227Z,52.55
2022-11-05T03:48:00.436Z,52.54
2022-11-05T03:50:37.137Z,52.61
2022-11-05T03:53:06.348Z,52.61
2022-11-05T03:55:39.249Z,52.61
2022-11-05T03:58:12.282Z,52.59
2022-11-05T04:00:45.257Z,52.56
2022-11-05T04:03:18.247Z,52.57
2022-11-05T04:05:51.293Z,52.60
2022-11-05T04:08:24.351Z,52.66
2022-11-05T04:10:57.325Z,52.60
2022-11-05T04:13:30.363Z,52.57
2022-11-05T04:16:03.315Z,52.58
2022-11-05T04:18:35.997Z,52.55
2022-11-05T04:21:09.376Z,52.57
2022-11-05T04:23:42.268Z,52.61
2022-11-05T04:26:15.253Z,52.57
2022-11-05T04:28:48.261Z,52.59
2022-11-05T04:31:21.388Z,52.63
2022-11-05T04:33:54.361Z,52.66
2022-11-05T04:36:27.398Z,52.62
2022-11-05T04:39:00.352Z,52.61
2022-11-05T04:41:33.403Z,52.62
2022-11-05T04:44:06.333Z,52.61
2022-11-05T04:46:39.360Z,52.58
2022-11-05T04:49:12.446Z,52.56
2022-11-05T04:51:45.431Z,52.57
2022-11-05T04:54:18.302Z,52.51
2022-11-05T04:56:51.403Z,52.52
2022-11-05T04:59:24.354Z,52.54
2022-11-05T05:01:57.495Z,52.55
2022-11-05T05:04:30.425Z,52.55
2022-11-05T05:07:03.429Z,52.52
2022-11-05T05:09:36.381Z,52.53
2022-11-05T05:12:09.482Z,52.56
2022-11-05T05:14:42.419Z,52.53
2022-11-05T05:17:15.120Z,52.51
2022-11-05T05:19:48.359Z,52.54
2022-11-05T05:22:21.455Z,52.55
2022-11-05T05:24:54.476Z,52.54
2022-11-05T05:27:27.478Z,52.53
2022-11-05T05:30:00.513Z,52.51
2022-11-05T05:32:33.391Z,52.51
2022-11-05T05:35:06.492Z,52.52
2022-11-05T05:37:39.375Z,52.44
2022-11-05T05:40:12.108Z,51.96
2022-11-05T05:42:45.084Z,51.45
2022-11-05T05:45:18.166Z,51.27
2022-11-05T05:47:51.285Z,51.18
2022-11-05T05:50:24.184Z,51.04
2022-11-05T05:52:57.462Z,50.97
2022-11-05T05:55:30.200Z,51.02
2022-11-05T05:58:03.279Z,51.23
2022-11-05T06:00:36.327Z,51.35
2022-11-05T06:03:09.374Z,51.46
2022-11-05T06:05:42.323Z,51.53
2022-11-05T06:08:15.119Z,51.59
2022-11-05T06:10:48.284Z,51.65
2022-11-05T06:13:21.295Z,51.71
2022-11-05T06:15:54.559Z,51.74
2022-11-05T06:18:27.497Z,51.79
2022-11-05T06:21:00.461Z,51.82
2022-11-05T06:23:33.530Z,51.87
2022-11-05T06:26:06.461Z,51.83
2022-11-05T06:28:53.572Z,51.85
2022-11-05T06:31:26.320Z,51.87
2022-11-05T06:33:59.468Z,51.62
2022-11-05T06:36:32.459Z,51.08
2022-11-05T06:39:05.543Z,50.93
2022-11-05T06:42:04.140Z,51.26
2022-11-05T06:44:11.554Z,51.32
2022-11-05T06:46:48.461Z,51.04
2022-11-05T06:49:17.499Z,50.77
2022-11-05T06:51:50.587Z,50.65
2022-11-05T06:54:37.501Z,50.58
2022-11-05T06:57:10.467Z,50.53
2022-11-05T06:59:43.600Z,50.33
2022-11-05T07:02:16.674Z,50.47
2022-11-05T07:04:49.391Z,50.28
2022-11-05T07:07:22.342Z,50.38
2022-11-05T07:09:55.240Z,50.32
2022-11-05T07:12:28.211Z,50.07
2022-11-05T07:15:01.544Z,50.17
2022-11-05T07:17:34.436Z,49.91
2022-11-05T07:20:07.580Z,50.13
2022-11-05T07:22:40.686Z,50.16
2022-11-05T07:25:13.438Z,50.14
2022-11-05T07:27:46.238Z,49.76
2022-11-05T07:30:19.400Z,50.11
2022-11-05T07:32:52.306Z,50.11
2022-11-05T07:35:25.631Z,50.10
2022-11-05T07:37:58.651Z,50.02
2022-11-05T07:40:31.642Z,46.79
2022-11-05T07:43:04.547Z,43.50
2022-11-05T07:45:37.453Z,43.03
2022-11-05T07:48:10.316Z,42.82
2022-11-05T07:50:43.539Z,43.18
2022-11-05T07:53:16.294Z,43.16
2022-11-05T07:55:49.456Z,43.21
2022-11-05T07:58:22.348Z,43.41
2022-11-05T08:00:55.653Z,43.47
2022-11-05T08:03:28.581Z,44.21
2022-11-05T08:06:01.520Z,44.96
2022-11-05T08:08:34.695Z,45.29
2022-11-05T08:11:21.414Z,45.35
2022-11-05T08:13:54.486Z,45.63
2022-11-05T08:16:27.559Z,46.20
2022-11-05T08:19:00.631Z,46.21
2022-11-05T08:21:33.729Z,46.78
2022-11-05T08:24:06.396Z,47.07
2022-11-05T08:26:42.585Z,47.50
2022-11-05T08:29:15.730Z,48.11
2022-11-05T08:31:48.722Z,48.38
2022-11-05T08:34:21.734Z,48.28
2022-11-05T08:36:54.617Z,48.52
2022-11-05T08:39:27.775Z,48.45
2022-11-05T08:42:00.759Z,48.80
2022-11-05T08:44:33.637Z,48.67
2022-11-05T08:47:06.744Z,48.73
2022-11-05T08:49:39.648Z,48.79
2022-11-05T08:52:12.387Z,48.76
2022-11-05T08:54:46.703Z,48.81
2022-11-05T08:57:19.377Z,48.85
2022-11-05T08:59:52.767Z,48.87
2022-11-05T09:02:25.966Z,48.89
2022-11-05T09:04:58.682Z,48.88
2022-11-05T09:07:31.554Z,48.89
2022-11-05T09:10:04.669Z,48.92
2022-11-05T09:12:37.808Z,48.95
2022-11-05T09:15:10.722Z,48.99
2022-11-05T09:17:43.780Z,49.08
2022-11-05T09:20:16.557Z,49.08
2022-11-05T09:22:49.809Z,49.10
2022-11-05T09:25:22.459Z,49.12
2022-11-05T09:27:55.533Z,49.12
2022-11-05T09:30:28.607Z,49.17
2022-11-05T09:33:01.429Z,49.17
2022-11-05T09:35:34.416Z,49.19
2022-11-05T09:38:07.835Z,49.20
2022-11-05T09:40:40.699Z,49.26
2022-11-05T09:43:14.095Z,49.26
2022-11-05T09:45:46.461Z,49.27
2022-11-05T09:48:19.674Z,49.26
2022-11-05T09:50:52.583Z,49.27
2022-11-05T09:53:25.486Z,49.32
2022-11-05T09:55:58.671Z,49.29
2022-11-05T09:58:31.613Z,49.25
2022-11-05T10:01:04.887Z,49.29
2022-11-05T10:03:37.777Z,49.32
2022-11-05T10:06:10.936Z,49.31
2022-11-05T10:08:44.801Z,49.34
2022-11-05T10:11:17.887Z,49.35
2022-11-05T10:13:50.701Z,49.36
2022-11-05T10:16:23.903Z,49.38
2022-11-05T10:18:56.668Z,49.38
2022-11-05T10:21:59.528Z,49.34
2022-11-05T10:24:02.884Z,49.39
2022-11-05T10:26:35.928Z,49.38
2022-11-05T10:29:08.953Z,49.38
2022-11-05T10:31:41.824Z,49.39
2022-11-05T10:34:14.523Z,49.41
2022-11-05T10:36:47.675Z,49.38
2022-11-05T10:39:20.812Z,49.38
2022-11-05T10:41:53.700Z,49.38
2022-11-05T10:44:26.924Z,49.39
2022-11-05T10:46:59.687Z,49.42
2022-11-05T10:49:32.922Z,49.43
2022-11-05T10:52:05.891Z,49.43
2022-11-05T10:54:38.826Z,49.44
2022-11-05T10:57:11.811Z,49.44
2022-11-05T10:59:44.886Z,49.44
2022-11-05T11:02:17.930Z,49.44
2022-11-05T11:04:50.843Z,49.44
2022-11-05T11:07:37.752Z,49.44
2022-11-05T11:10:10.567Z,49.46
2022-11-05T11:12:43.977Z,49.40
2022-11-05T11:15:16.592Z,49.35
2022-11-05T11:17:49.849Z,49.39
2022-11-05T11:20:22.742Z,49.38
2022-11-05T11:22:55.787Z,49.40
2022-11-05T11:25:28.973Z,49.37
2022-11-05T11:28:01.746Z,49.39
2022-11-05T11:30:34.813Z,49.38
2022-11-05T11:33:07.842Z,49.39
2022-11-05T11:35:40.754Z,49.38
2022-11-05T11:38:13.960Z,49.38
2022-11-05T11:40:46.883Z,49.37
2022-11-05T11:43:19.741Z,49.35
2022-11-05T11:45:52.715Z,49.37
2022-11-05T11:48:26.028Z,49.38
2022-11-05T11:50:59.025Z,49.41
2022-11-05T11:53:31.818Z,49.44
2022-11-05T11:56:04.780Z,49.45
2022-11-05T11:58:37.860Z,49.42
2022-11-05T12:01:10.741Z,49.45
2022-11-05T12:03:43.713Z,49.43
2022-11-05T12:06:16.695Z,49.45
2022-11-05T12:08:57.320Z,49.47
2022-11-05T12:11:22.871Z,49.47
2022-11-05T12:13:56.045Z,49.48
2022-11-05T12:16:28.707Z,49.51
2022-11-05T12:19:01.679Z,49.49
2022-11-05T12:21:51.949Z,49.49
2022-11-05T12:24:08.007Z,49.47
2022-11-05T12:26:40.973Z,49.50
2022-11-05T12:29:18.737Z,49.52
2022-11-05T12:31:47.023Z,49.50
2022-11-05T12:34:19.846Z,49.52
2022-11-05T12:36:52.911Z,49.53
2022-11-05T12:39:25.836Z,49.54
2022-11-05T12:41:58.890Z,49.53
2022-11-05T12:44:32.142Z,49.55
2022-11-05T12:47:05.111Z,49.55
2022-11-05T12:49:38.137Z,49.58
2022-11-05T12:52:10.769Z,49.57
2022-11-05T12:54:44.016Z,49.56
2022-11-05T12:57:16.750Z,49.54
2022-11-05T12:59:49.761Z,49.55
2022-11-05T13:02:22.985Z,49.58
2022-11-05T13:04:55.936Z,49.57
2022-11-05T13:07:28.830Z,49.58
2022-11-05T13:10:01.789Z,49.58
2022-11-05T13:12:34.753Z,49.54
2022-11-05T13:15:08.159Z,49.59
2022-11-05T13:17:41.151Z,49.56
2022-11-05T13:20:17.353Z,49.59
2022-11-05T13:22:47.175Z,49.61
2022-11-05T13:25:20.186Z,49.59
2022-11-05T13:27:52.922Z,49.61
2022-11-05T13:30:26.086Z,49.59
2022-11-05T13:32:59.172Z,49.56
2022-11-05T13:35:32.092Z,49.54
2022-11-05T13:38:05.198Z,49.57
2022-11-05T13:40:37.938Z,49.57
2022-11-05T13:43:11.443Z,49.56
2022-11-05T13:45:44.180Z,49.56
2022-11-05T13:48:17.095Z,49.56
2022-11-05T13:50:50.189Z,49.54
2022-11-05T13:53:23.203Z,49.56
2022-11-05T13:55:56.204Z,49.56
2022-11-05T13:58:29.179Z,49.54
2022-11-05T14:01:02.246Z,49.53
2022-11-05T14:03:34.988Z,49.43
2022-11-05T14:06:08.137Z,49.36
2022-11-05T14:08:41.209Z,49.28
2022-11-05T14:11:14.018Z,49.32
2022-11-05T14:13:47.008Z,49.35
2022-11-05T14:16:20.192Z,49.32
2022-11-05T14:18:53.248Z,49.27
2022-11-05T14:21:26.165Z,49.17
2022-11-05T14:23:59.274Z,49.17
2022-11-05T14:26:32.185Z,49.12
2022-11-05T14:29:05.264Z,49.19
2022-11-05T14:32:07.001Z,49.11
2022-11-05T14:34:11.170Z,49.11
2022-11-05T14:36:44.187Z,49.20
2022-11-05T14:39:17.175Z,49.22
2022-11-05T14:41:50.214Z,49.18
2022-11-05T14:44:22.874Z,49.22
2022-11-05T14:46:56.355Z,49.29
2022-11-05T14:49:29.318Z,49.34
2022-11-05T14:52:02.282Z,49.50
2022-11-05T14:54:35.183Z,49.57
2022-11-05T14:57:08.294Z,49.63
2022-11-05T14:59:41.207Z,49.66
2022-11-05T15:02:14.400Z,49.74
2022-11-05T15:04:47.307Z,49.72
2022-11-05T15:07:20.295Z,49.80
2022-11-05T15:09:53.226Z,49.83
2022-11-05T15:12:26.295Z,49.83
2022-11-05T15:14:59.305Z,49.90
2022-11-05T15:17:32.342Z,49.93
2022-11-05T15:20:05.316Z,49.99
2022-11-05T15:22:38.034Z,49.95
2022-11-05T15:25:11.247Z,49.97
2022-11-05T15:27:44.339Z,50.00
2022-11-05T15:30:20.246Z,49.99
2022-11-05T15:32:53.278Z,50.00
2022-11-05T15:35:26.247Z,50.00
2022-11-05T15:38:02.409Z,50.03
2022-11-05T15:40:32.265Z,50.05
2022-11-05T15:43:05.272Z,50.05
2022-11-05T15:45:38.361Z,50.06
2022-11-05T15:48:11.286Z,50.07
2022-11-05T15:50:43.979Z,50.11
2022-11-05T15:55:50.405Z,50.10
2022-11-05T15:58:23.386Z,50.13
2022-11-05T16:00:56.267Z,50.15
2022-11-05T16:03:29.340Z,50.13
2022-11-05T16:06:02.298Z,50.13
2022-11-05T16:08:35.313Z,50.16
2022-11-05T16:11:08.348Z,50.17
2022-11-05T16:13:41.340Z,50.14
2022-11-05T16:16:14.327Z,50.17
2022-11-05T16:18:47.320Z,50.20
2022-11-05T16:21:20.296Z,50.20
2022-11-05T16:23:53.076Z,50.19
2022-11-05T16:26:55.809Z,50.20
2022-11-05T16:28:59.429Z,50.22
2022-11-05T16:31:32.433Z,50.23
2022-11-05T16:34:05.334Z,50.23
2022-11-05T16:36:38.214Z,50.23
2022-11-05T16:39:11.275Z,50.27
2022-11-05T16:41:44.477Z,50.31
2022-11-05T16:44:17.367Z,50.29
2022-11-05T16:46:50.491Z,50.29
2022-11-05T16:49:23.462Z,50.28
2022-11-05T16:51:56.273Z,50.34
2022-11-05T16:54:29.466Z,50.39
2022-11-05T16:57:02.358Z,50.40
2022-11-05T16:59:35.393Z,50.38
2022-11-05T17:02:08.650Z,50.34
2022-11-05T17:04:41.434Z,50.28
2022-11-05T17:07:18.241Z,50.27
2022-11-05T17:09:51.406Z,50.22
2022-11-05T17:12:24.475Z,50.19
2022-11-05T17:14:57.373Z,50.20
2022-11-05T17:17:30.430Z,50.21
2022-11-05T17:20:03.727Z,50.22
2022-11-05T17:22:36.410Z,50.23
2022-11-05T17:25:09.366Z,50.22
2022-11-05T17:27:42.216Z,50.17
2022-11-05T17:30:15.122Z,50.16
2022-11-05T17:32:48.358Z,50.21
2022-11-05T17:35:21.419Z,50.22
2022-11-05T17:37:54.408Z,50.23
2022-11-05T17:40:27.153Z,50.28
2022-11-05T17:43:00.415Z,50.34
2022-11-05T17:45:33.524Z,50.37
2022-11-05T17:48:06.448Z,50.42
2022-11-05T17:50:39.350Z,50.42
2022-11-05T17:53:12.511Z,50.47
2022-11-05T17:55:45.445Z,50.49
2022-11-05T17:58:18.501Z,50.51
2022-11-05T18:03:25.211Z,50.54
2022-11-05T18:05:58.678Z,50.61
2022-11-05T18:08:31.565Z,50.68
2022-11-05T18:11:04.481Z,50.69
2022-11-05T18:13:37.563Z,50.65
2022-11-05T18:16:10.470Z,50.67
2022-11-05T18:18:43.204Z,50.68
2022-11-05T18:21:16.494Z,50.70
2022-11-05T18:23:49.363Z,50.65
2022-11-05T18:26:22.616Z,50.77
2022-11-05T18:28:55.588Z,50.74
2022-11-05T18:31:28.224Z,50.69
2022-11-05T18:34:01.424Z,50.71
2022-11-05T18:36:34.403Z,50.72
2022-11-05T18:39:07.268Z,50.75
2022-11-05T18:41:40.377Z,50.74
2022-11-05T18:44:13.252Z,50.73
2022-11-05T18:47:01.636Z,50.70
2022-11-05T18:49:19.447Z,50.73
2022-11-05T18:51:52.454Z,50.61
2022-11-05T18:54:25.382Z,50.42
2022-11-05T18:56:58.254Z,50.32
2022-11-05T18:59:39.791Z,50.18
2022-11-05T19:02:04.622Z,50.00
2022-11-05T19:04:37.582Z,49.92
2022-11-05T19:07:10.307Z,49.98
2022-11-05T19:09:43.481Z,50.05
2022-11-05T19:12:16.267Z,50.07
2022-11-05T19:14:49.580Z,50.08
2022-11-05T19:17:22.433Z,50.11
2022-11-05T19:19:55.283Z,50.13
2022-11-05T19:22:28.482Z,50.16
2022-11-05T19:25:01.387Z,50.14
2022-11-05T19:27:34.320Z,50.13
2022-11-05T19:30:07.736Z,50.17
2022-11-05T19:32:40.692Z,50.15
2022-11-05T19:35:13.604Z,50.15
2022-11-05T19:37:46.682Z,50.11
2022-11-05T19:40:19.459Z,50.15
2022-11-05T19:42:52.314Z,50.08
2022-11-05T19:47:58.455Z,50.16
2022-11-05T19:50:31.404Z,50.18
2022-11-05T19:53:04.653Z,50.14
2022-11-05T19:55:37.743Z,50.18
2022-11-05T19:58:10.702Z,50.14
2022-11-05T20:00:43.434Z,50.13
2022-11-05T20:03:16.578Z,50.12
2022-11-05T20:05:49.358Z,50.13
2022-11-05T20:08:22.541Z,50.13
2022-11-05T20:10:55.488Z,50.13
2022-11-05T20:13:28.471Z,50.20
2022-11-05T20:16:01.577Z,50.20
2022-11-05T20:18:34.380Z,50.23
2022-11-05T20:21:07.384Z,50.25
2022-11-05T20:23:40.549Z,50.24
2022-11-05T20:26:13.399Z,50.26
2022-11-05T20:28:46.445Z,50.24
2022-11-05T20:31:19.783Z,50.27
2022-11-05T20:33:52.428Z,50.30
2022-11-05T20:36:25.547Z,50.31
2022-11-05T20:38:58.459Z,50.33
2022-11-05T20:41:31.558Z,50.32
2022-11-05T20:44:04.630Z,50.39
2022-11-05T20:46:40.451Z,50.38
2022-11-05T20:49:13.437Z,50.38
2022-11-05T20:51:46.620Z,50.35
2022-11-05T20:54:19.502Z,50.36
2022-11-05T20:56:52.473Z,50.42
2022-11-05T20:59:25.625Z,50.42
2022-11-05T21:01:58.577Z,50.42
2022-11-05T21:04:31.761Z,50.44
2022-11-05T21:07:04.867Z,50.48
2022-11-05T21:09:37.857Z,50.44
2022-11-05T21:12:10.469Z,50.49
2022-11-05T21:14:43.551Z,50.46
2022-11-05T21:17:16.581Z,50.44
2022-11-05T21:19:49.515Z,50.48
2022-11-05T21:22:22.621Z,50.44
2022-11-05T21:24:55.492Z,50.44
2022-11-05T21:27:43.687Z,50.47
2022-11-05T21:30:15.622Z,50.51
2022-11-05T21:32:48.794Z,50.50
2022-11-05T21:35:21.749Z,50.54
2022-11-05T21:37:54.894Z,50.52
2022-11-05T21:40:27.854Z,50.52
2022-11-05T21:43:00.907Z,50.52
2022-11-05T21:45:47.613Z,50.50
2022-11-05T21:48:20.768Z,49.83
2022-11-05T21:50:53.753Z,49.41
2022-11-05T21:53:26.666Z,49.83
2022-11-05T21:55:59.907Z,50.04
2022-11-05T21:58:32.571Z,50.07
2022-11-05T22:01:06.040Z,50.18
2022-11-05T22:03:38.684Z,50.23
2022-11-05T22:06:11.533Z,50.29
2022-11-05T22:08:44.523Z,50.39
2022-11-05T22:11:17.748Z,50.37
2022-11-05T22:13:50.851Z,50.40
2022-11-05T22:16:23.921Z,50.44
2022-11-05T22:18:56.850Z,50.42
2022-11-05T22:21:29.974Z,50.45
2022-11-05T22:24:02.886Z,50.42
2022-11-05T22:26:36.053Z,50.42
2022-11-05T22:29:08.892Z,50.42
2022-11-05T22:31:41.960Z,50.46
2022-11-05T22:34:14.843Z,50.42
2022-11-05T22:36:53.933Z,50.43
2022-11-05T22:39:26.884Z,50.48
2022-11-05T22:42:03.138Z,50.52
2022-11-05T22:44:32.908Z,50.55
2022-11-05T22:47:06.000Z,50.58
2022-11-05T22:49:39.021Z,50.63
2022-11-05T22:52:12.007Z,50.70
2022-11-05T22:54:58.888Z,50.69
2022-11-05T22:57:32.105Z,50.74
2022-11-05T23:00:04.896Z,50.76
2022-11-05T23:02:38.165Z,50.76
2022-11-05T23:05:10.608Z,50.88
2022-11-05T23:07:43.922Z,51.04
2022-11-05T23:10:17.033Z,51.09
2022-11-05T23:12:50.027Z,51.05
2022-11-05T23:15:23.020Z,51.12
2022-11-05T23:17:55.993Z,51.13
2022-11-05T23:20:28.975Z,51.19
2022-11-05T23:23:01.827Z,51.16
2022-11-05T23:25:34.991Z,51.21
2022-11-05T23:28:07.905Z,51.25
2022-11-05T23:30:40.835Z,51.25
2022-11-05T23:33:13.956Z,51.39
2022-11-05T23:35:46.912Z,51.30
2022-11-05T23:38:20.068Z,51.32
2022-11-05T23:40:53.077Z,51.39
2022-11-05T23:43:26.015Z,51.35
2022-11-05T23:45:59.033Z,51.35
2022-11-05T23:51:22.084Z,51.37
2022-11-05T23:53:54.977Z,51.52
2022-11-05T23:56:28.053Z,51.46
2022-11-05T23:59:01.098Z,51.46
